Terminal Aerodrome Forecast
Issued by NWS

Current Version | Previous Version | Text Only | Print | Product List | Glossary Off
Versions: 1 2 3 4 5 6 7 8 9 10 11 12 13 14 15 16 17 18 19 20 21 22 23

000
FTUS41 KRNK 300520
TAFLWB
TAF
KLWB 300520Z 3006/0106 18004KT P6SM OVC050
     FM301000 15007KT 5SM -SHRA OVC020
     FM301500 18011G21KT 3SM SHRA OVC035
     FM010000 24008G18KT P6SM BKN025
     FM010400 27008G18KT P6SM BKN040=

USA.gov is the U.S. government's official web portal to all federal, state and local government web resources and services.